createdAt,value
2023-04-14T00:01:31.711Z,4.05
2023-04-14T00:03:04.432Z,4.20
2023-04-14T00:04:36.960Z,3.97
2023-04-14T00:06:09.202Z,3.53
2023-04-14T00:07:41.328Z,3.60
2023-04-14T00:09:13.468Z,4.32
2023-04-14T00:10:45.592Z,4.47
2023-04-14T00:12:17.645Z,3.90
2023-04-14T00:13:49.808Z,4.50
2023-04-14T00:15:22.342Z,4.25
2023-04-14T00:16:54.463Z,3.93
2023-04-14T00:18:26.728Z,4.30
2023-04-14T00:19:58.786Z,4.03
2023-04-14T00:21:32.044Z,4.38
2023-04-14T00:23:04.131Z,4.00
2023-04-14T00:24:41.241Z,4.20
2023-04-14T00:26:13.352Z,4.40
2023-04-14T00:27:45.466Z,3.97
2023-04-14T00:29:17.609Z,4.38
2023-04-14T00:30:49.855Z,4.70
2023-04-14T00:32:22.009Z,4.22
2023-04-14T00:33:54.141Z,4.55
2023-04-14T00:35:26.378Z,4.35
2023-04-14T00:36:58.522Z,4.82
2023-04-14T00:38:30.815Z,5.03
2023-04-14T00:40:03.175Z,5.68
2023-04-14T00:41:35.796Z,5.45
2023-04-14T00:43:07.929Z,4.13
2023-04-14T00:44:40.124Z,5.50
2023-04-14T00:46:15.121Z,4.93
2023-04-14T00:47:48.420Z,4.45
2023-04-14T00:49:20.675Z,4.35
2023-04-14T00:50:52.904Z,4.00
2023-04-14T00:52:25.971Z,4.65
2023-04-14T00:53:58.097Z,4.57
2023-04-14T00:55:30.867Z,3.97
2023-04-14T00:57:03.371Z,4.10
2023-04-14T00:58:35.907Z,4.03
2023-04-14T01:00:08.651Z,4.70
2023-04-14T01:01:41.894Z,4.60
2023-04-14T01:03:14.135Z,4.68
2023-04-14T01:04:53.765Z,4.53
2023-04-14T01:06:27.605Z,4.45
2023-04-14T01:07:59.822Z,4.90
2023-04-14T01:09:32.398Z,5.90
2023-04-14T01:11:17.585Z,5.10
2023-04-14T01:12:55.056Z,4.93
2023-04-14T01:15:05.868Z,4.95
2023-04-14T01:16:40.620Z,4.57
2023-04-14T01:18:27.162Z,5.00
2023-04-14T01:20:17.399Z,4.90
2023-04-14T01:21:52.621Z,5.03
2023-04-14T01:23:27.848Z,4.22
2023-04-14T01:25:05.511Z,4.75
2023-04-14T01:26:37.942Z,4.57
2023-04-14T01:28:39.230Z,4.78
2023-04-14T01:30:30.260Z,4.53
2023-04-14T01:32:12.402Z,5.13
2023-04-14T01:33:50.647Z,5.32
2023-04-14T01:35:43.066Z,5.30
2023-04-14T01:37:21.954Z,4.65
2023-04-14T01:38:55.975Z,4.97
2023-04-14T01:40:29.021Z,5.20
2023-04-14T01:42:02.759Z,5.82
2023-04-14T01:43:38.473Z,4.80
2023-04-14T01:45:18.896Z,5.38
2023-04-14T01:46:52.660Z,4.93
2023-04-14T01:48:26.316Z,5.47
2023-04-14T01:50:00.054Z,4.45
2023-04-14T01:51:32.996Z,5.28
2023-04-14T01:53:07.210Z,4.75
2023-04-14T01:54:40.540Z,5.10
2023-04-14T01:56:13.738Z,5.20
2023-04-14T01:57:50.330Z,5.18
2023-04-14T01:59:23.679Z,4.70
2023-04-14T02:00:56.363Z,4.97
2023-04-14T02:02:28.742Z,5.13
2023-04-14T02:04:05.492Z,4.60
2023-04-14T02:05:39.782Z,5.03
2023-04-14T02:07:13.084Z,6.13
2023-04-14T02:08:45.237Z,5.18
2023-04-14T02:10:20.488Z,5.00
2023-04-14T02:11:53.530Z,4.75
2023-04-14T02:13:26.225Z,5.38
2023-04-14T02:15:00.842Z,5.38
2023-04-14T02:16:34.273Z,4.75
2023-04-14T02:19:38.733Z,5.22
2023-04-14T02:21:11.358Z,5.40
2023-04-14T02:22:43.796Z,6.20
2023-04-14T02:24:15.979Z,5.30
2023-04-14T02:26:19.324Z,4.95
2023-04-14T02:27:56.969Z,5.10
2023-04-14T02:29:29.743Z,5.07
2023-04-14T02:31:06.748Z,5.05
2023-04-14T02:32:41.206Z,4.35
2023-04-14T02:34:14.678Z,4.50
2023-04-14T02:35:56.856Z,3.88
2023-04-14T02:37:39.900Z,4.50
2023-04-14T02:39:18.340Z,5.10
2023-04-14T02:40:50.799Z,4.35
2023-04-14T02:42:27.551Z,5.05
2023-04-14T02:44:06.769Z,4.75
2023-04-14T02:45:41.070Z,4.93
2023-04-14T02:47:24.831Z,4.88
2023-04-14T02:48:58.370Z,4.80
2023-04-14T02:50:31.165Z,4.72
2023-04-14T02:52:07.583Z,4.43
2023-04-14T02:53:40.027Z,4.40
2023-04-14T02:55:12.352Z,5.07
2023-04-14T02:56:44.597Z,5.30
2023-04-14T02:58:17.052Z,4.63
2023-04-14T02:59:49.839Z,4.40
2023-04-14T03:01:22.146Z,4.75
2023-04-14T03:02:54.972Z,4.70
2023-04-14T03:04:27.529Z,5.07
2023-04-14T03:05:59.968Z,4.47
2023-04-14T03:07:32.557Z,4.53
2023-04-14T03:09:05.609Z,4.10
2023-04-14T03:10:39.011Z,5.07
2023-04-14T03:13:46.379Z,4.13
2023-04-14T03:15:19.360Z,4.45
2023-04-14T03:16:53.610Z,4.53
2023-04-14T03:18:27.106Z,4.13
2023-04-14T03:20:00.550Z,5.10
2023-04-14T03:21:33.965Z,4.57
2023-04-14T03:23:06.304Z,4.68
2023-04-14T03:24:39.580Z,4.18
2023-04-14T03:26:18.756Z,4.47
2023-04-14T03:27:51.506Z,4.47
2023-04-14T03:29:28.273Z,4.72
2023-04-14T03:31:01.761Z,4.75
2023-04-14T03:32:37.342Z,4.32
2023-04-14T03:34:09.656Z,4.47
2023-04-14T03:35:42.575Z,4.53
2023-04-14T03:37:18.386Z,4.45
2023-04-14T03:38:51.524Z,4.30
2023-04-14T03:40:26.362Z,4.70
2023-04-14T03:41:59.083Z,4.15
2023-04-14T03:43:33.744Z,4.57
2023-04-14T03:45:06.901Z,4.45
2023-04-14T03:46:39.058Z,4.60
2023-04-14T03:48:13.827Z,5.07
2023-04-14T03:49:49.709Z,4.50
2023-04-14T03:51:23.124Z,3.90
2023-04-14T03:54:30.901Z,5.05
2023-04-14T03:56:03.829Z,4.50
2023-04-14T03:57:36.969Z,4.47
2023-04-14T03:59:13.073Z,4.40
2023-04-14T04:00:45.745Z,4.70
2023-04-14T04:02:18.639Z,4.75
2023-04-14T04:03:52.668Z,4.25
2023-04-14T04:05:25.060Z,4.97
2023-04-14T04:06:57.490Z,5.25
2023-04-14T04:08:31.250Z,4.35
2023-04-14T04:10:06.260Z,4.70
2023-04-14T04:11:39.392Z,5.05
2023-04-14T04:13:13.927Z,5.20
2023-04-14T04:14:46.304Z,5.70
2023-04-14T04:16:19.946Z,5.55
2023-04-14T04:17:52.402Z,6.30
2023-04-14T04:19:24.736Z,6.40
2023-04-14T04:20:58.358Z,6.55
2023-04-14T04:22:31.054Z,6.68
2023-04-14T04:24:05.313Z,6.68
2023-04-14T04:25:39.088Z,6.13
2023-04-14T04:27:24.358Z,5.75
2023-04-14T04:29:01.108Z,7.25
2023-04-14T04:30:34.699Z,7.28
2023-04-14T04:32:07.349Z,7.72
2023-04-14T04:33:39.384Z,8.10
2023-04-14T04:35:12.298Z,9.40
2023-04-14T04:36:45.217Z,8.55
2023-04-14T04:38:17.735Z,8.18
2023-04-14T04:39:49.973Z,8.75
2023-04-14T04:41:23.038Z,9.18
2023-04-14T04:42:55.215Z,8.98
2023-04-14T04:44:27.480Z,9.52
2023-04-14T04:45:59.579Z,7.80
2023-04-14T04:47:31.738Z,7.90
2023-04-14T04:49:03.849Z,6.88
2023-04-14T04:50:36.084Z,7.03
2023-04-14T04:52:08.112Z,6.00
2023-04-14T04:53:40.284Z,6.28
2023-04-14T04:55:12.389Z,5.32
2023-04-14T04:56:44.466Z,5.88
2023-04-14T04:58:16.605Z,5.63
2023-04-14T04:59:51.787Z,5.03
2023-04-14T05:01:23.905Z,4.82
2023-04-14T05:02:56.887Z,4.55
2023-04-14T05:04:29.224Z,5.68
2023-04-14T05:06:01.491Z,5.13
2023-04-14T05:07:33.769Z,4.93
2023-04-14T05:09:06.416Z,4.68
2023-04-14T05:10:38.608Z,4.93
2023-04-14T05:12:11.157Z,4.20
2023-04-14T05:13:43.362Z,4.67
2023-04-14T05:15:16.456Z,4.95
2023-04-14T05:16:48.779Z,4.38
2023-04-14T05:18:21.217Z,4.72
2023-04-14T05:19:53.321Z,4.45
2023-04-14T05:21:25.542Z,4.15
2023-04-14T05:22:57.697Z,4.10
2023-04-14T05:24:29.826Z,4.28
2023-04-14T05:26:22.317Z,4.18
2023-04-14T05:27:54.364Z,4.22
2023-04-14T05:29:26.518Z,4.45
2023-04-14T05:31:01.186Z,4.50
2023-04-14T05:32:33.631Z,5.32
2023-04-14T05:34:08.395Z,4.90
2023-04-14T05:35:40.882Z,5.18
2023-04-14T05:37:13.039Z,4.78
2023-04-14T05:38:45.324Z,4.95
2023-04-14T05:40:18.453Z,5.82
2023-04-14T05:41:50.746Z,7.35
2023-04-14T05:43:22.838Z,6.40
2023-04-14T05:44:55.023Z,5.93
2023-04-14T05:46:27.190Z,7.10
2023-04-14T05:47:59.518Z,5.60
2023-04-14T05:49:31.876Z,5.53
2023-04-14T05:51:04.159Z,6.28
2023-04-14T05:52:36.417Z,6.28
2023-04-14T05:54:08.497Z,5.47
2023-04-14T05:55:41.949Z,5.53
2023-04-14T05:57:14.210Z,5.07
2023-04-14T05:58:46.412Z,6.50
2023-04-14T06:00:18.805Z,6.40
2023-04-14T06:01:53.705Z,7.40
2023-04-14T06:03:26.301Z,7.85
2023-04-14T06:05:00.214Z,7.55
2023-04-14T06:08:04.383Z,13.20
2023-04-14T06:09:36.616Z,13.60
2023-04-14T06:11:08.835Z,14.57
2023-04-14T06:12:40.931Z,16.65
2023-04-14T06:14:13.035Z,13.93
2023-04-14T06:15:45.139Z,12.25
2023-04-14T06:17:17.781Z,9.50
2023-04-14T06:18:49.982Z,9.00
2023-04-14T06:20:22.403Z,8.02
2023-04-14T06:21:54.643Z,8.38
2023-04-14T06:23:27.231Z,10.05
2023-04-14T06:24:59.356Z,9.55
2023-04-14T06:26:32.828Z,8.82
2023-04-14T06:29:37.091Z,9.02
2023-04-14T06:31:09.375Z,9.38
2023-04-14T06:32:41.810Z,9.30
2023-04-14T06:34:13.968Z,8.65
2023-04-14T06:37:29.474Z,9.63
2023-04-14T06:39:01.827Z,8.98
2023-04-14T06:40:34.110Z,9.13
2023-04-14T06:42:06.415Z,7.50
2023-04-14T06:43:38.556Z,7.82
2023-04-14T06:45:11.167Z,9.25
2023-04-14T06:46:43.326Z,11.93
2023-04-14T06:48:16.102Z,10.50
2023-04-14T06:49:51.228Z,11.32
2023-04-14T06:51:23.351Z,18.05
2023-04-14T06:52:55.887Z,17.38
2023-04-14T06:54:28.499Z,13.57
2023-04-14T06:56:01.056Z,10.70
2023-04-14T06:57:33.291Z,8.70
2023-04-14T06:59:05.464Z,12.90
2023-04-14T07:00:37.785Z,15.13
2023-04-14T07:02:10.012Z,15.65
2023-04-14T07:03:42.185Z,18.67
2023-04-14T07:05:14.883Z,21.90
2023-04-14T07:06:47.133Z,21.58
2023-04-14T07:08:20.448Z,21.80
2023-04-14T07:09:52.739Z,19.23
2023-04-14T07:11:25.259Z,18.52
2023-04-14T07:12:57.419Z,18.23
2023-04-14T07:14:31.854Z,20.20
2023-04-14T07:16:04.805Z,17.90
2023-04-14T07:17:37.273Z,14.40
2023-04-14T07:19:09.656Z,14.60
2023-04-14T07:20:42.356Z,12.10
2023-04-14T07:22:14.577Z,11.20
2023-04-14T07:23:46.665Z,9.07
2023-04-14T07:25:19.796Z,7.28
2023-04-14T07:26:52.319Z,7.60
2023-04-14T07:28:25.335Z,7.15
2023-04-14T07:29:57.560Z,7.00
2023-04-14T07:31:31.784Z,8.00
2023-04-14T07:33:04.151Z,8.93
2023-04-14T07:34:36.356Z,9.07
2023-04-14T07:36:09.919Z,9.73
2023-04-14T07:37:42.090Z,10.35
2023-04-14T07:39:14.287Z,9.60
2023-04-14T07:40:46.937Z,9.45
2023-04-14T07:42:19.215Z,7.90
2023-04-14T07:43:51.374Z,7.80
2023-04-14T07:45:23.960Z,7.65
2023-04-14T07:46:56.159Z,7.60
2023-04-14T07:48:28.687Z,6.90
2023-04-14T07:50:00.809Z,6.53
2023-04-14T07:51:33.544Z,6.78
2023-04-14T07:53:05.812Z,6.15
2023-04-14T07:54:38.020Z,5.40
2023-04-14T07:56:10.353Z,5.32
2023-04-14T07:57:42.634Z,5.43
2023-04-14T07:59:15.120Z,5.88
2023-04-14T08:00:47.397Z,5.83
2023-04-14T08:02:19.908Z,7.43
2023-04-14T08:03:52.506Z,9.40
2023-04-14T08:05:24.946Z,10.82
2023-04-14T08:06:58.288Z,8.43
2023-04-14T08:08:30.706Z,7.03
2023-04-14T08:10:03.805Z,6.50
2023-04-14T08:11:36.122Z,8.10
2023-04-14T08:13:08.340Z,6.78
2023-04-14T08:14:40.670Z,6.72
2023-04-14T08:16:13.330Z,6.22
2023-04-14T08:17:45.581Z,6.95
2023-04-14T08:19:17.751Z,6.88
2023-04-14T08:20:50.151Z,6.57
2023-04-14T08:22:22.326Z,7.28
2023-04-14T08:23:54.512Z,6.65
2023-04-14T08:26:59.950Z,7.05
2023-04-14T08:28:32.321Z,6.80
2023-04-14T08:30:05.693Z,6.78
2023-04-14T08:33:10.147Z,9.30
2023-04-14T08:35:37.018Z,8.60
2023-04-14T08:36:34.857Z,8.90
2023-04-14T08:38:07.275Z,8.55
2023-04-14T08:39:39.447Z,9.00
2023-04-14T08:41:13.563Z,8.68
2023-04-14T08:42:48.793Z,8.40
2023-04-14T08:44:22.367Z,6.97
2023-04-14T08:45:55.381Z,7.03
2023-04-14T08:47:32.390Z,7.65
2023-04-14T08:49:08.928Z,8.77
2023-04-14T08:51:08.336Z,6.40
2023-04-14T08:52:41.310Z,6.35
2023-04-14T08:54:13.699Z,4.28
2023-04-14T08:55:45.972Z,4.00
2023-04-14T08:57:23.207Z,5.88
2023-04-14T08:58:55.813Z,3.92
2023-04-14T09:00:28.148Z,4.05
2023-04-14T09:02:00.929Z,3.80
2023-04-14T09:03:33.723Z,4.05
2023-04-14T09:05:07.361Z,3.80
2023-04-14T09:06:40.667Z,3.90
2023-04-14T09:08:13.198Z,3.75
2023-04-14T09:09:46.004Z,3.50
2023-04-14T09:11:20.685Z,3.50
2023-04-14T09:12:53.080Z,3.53
2023-04-14T09:14:25.434Z,3.40
2023-04-14T09:15:58.113Z,3.58
2023-04-14T09:17:32.002Z,3.42
2023-04-14T09:19:06.855Z,3.80
2023-04-14T09:20:41.313Z,3.75
2023-04-14T09:22:14.151Z,4.13
2023-04-14T09:23:47.169Z,4.43
2023-04-14T09:25:20.275Z,4.65
2023-04-14T09:26:53.386Z,4.65
2023-04-14T09:28:25.810Z,4.50
2023-04-14T09:29:59.115Z,4.25
2023-04-14T09:33:07.700Z,4.00
2023-04-14T09:34:54.683Z,3.95
2023-04-14T09:36:29.564Z,4.15
2023-04-14T09:38:02.220Z,3.55
2023-04-14T09:39:35.753Z,3.55
2023-04-14T09:41:08.641Z,3.42
2023-04-14T09:42:43.210Z,3.95
2023-04-14T09:44:15.374Z,3.50
2023-04-14T09:45:47.715Z,3.50
2023-04-14T09:47:21.344Z,3.70
2023-04-14T09:48:55.882Z,3.60
2023-04-14T09:50:28.486Z,4.03
2023-04-14T09:52:08.115Z,3.60
2023-04-14T09:53:41.576Z,4.82
2023-04-14T09:55:15.903Z,4.10
2023-04-14T09:56:48.202Z,4.60
2023-04-14T09:58:25.571Z,3.95
2023-04-14T09:59:59.067Z,3.90
2023-04-14T10:01:34.592Z,3.65
2023-04-14T10:03:07.313Z,3.40
2023-04-14T10:04:39.660Z,3.42
2023-04-14T10:06:24.224Z,3.28
2023-04-14T10:07:56.753Z,3.25
2023-04-14T10:09:30.104Z,3.00
2023-04-14T10:12:46.986Z,3.13
2023-04-14T10:14:19.273Z,3.15
2023-04-14T10:15:51.542Z,2.70
2023-04-14T10:17:23.882Z,3.03
2023-04-14T10:18:58.065Z,4.68
2023-04-14T10:20:30.594Z,3.55
2023-04-14T10:22:03.249Z,3.35
2023-04-14T10:23:40.203Z,3.45
2023-04-14T10:25:13.701Z,3.70
2023-04-14T10:26:47.699Z,3.13
2023-04-14T10:28:19.987Z,3.30
2023-04-14T10:29:52.166Z,3.70
2023-04-14T10:31:26.152Z,3.35
2023-04-14T10:32:58.543Z,3.60
2023-04-14T10:34:35.474Z,4.77
2023-04-14T10:36:07.722Z,3.95
2023-04-14T10:37:40.088Z,3.40
2023-04-14T10:39:12.946Z,4.07
2023-04-14T10:41:05.911Z,4.30
2023-04-14T10:43:12.421Z,4.53
2023-04-14T10:44:44.807Z,3.33
2023-04-14T10:46:18.625Z,3.43
2023-04-14T10:47:51.447Z,3.75
2023-04-14T10:49:31.651Z,3.63
2023-04-14T10:51:06.292Z,3.60
2023-04-14T10:52:39.667Z,3.75
2023-04-14T10:56:01.143Z,5.70
2023-04-14T10:57:43.809Z,3.63
2023-04-14T10:59:17.980Z,4.13
2023-04-14T11:00:50.144Z,4.90
2023-04-14T11:02:30.870Z,3.53
2023-04-14T11:04:20.435Z,3.10
2023-04-14T11:05:52.794Z,3.40
2023-04-14T11:07:25.026Z,3.40
2023-04-14T11:08:57.902Z,4.10
2023-04-14T11:10:32.835Z,3.22
2023-04-14T11:12:07.214Z,3.53
2023-04-14T11:13:42.818Z,3.67
2023-04-14T11:15:18.131Z,3.30
2023-04-14T11:17:02.898Z,3.05
2023-04-14T11:18:45.646Z,4.25
2023-04-14T11:20:24.567Z,4.80
2023-04-14T11:21:57.649Z,4.95
2023-04-14T11:23:29.962Z,5.40
2023-04-14T11:25:02.890Z,6.65
2023-04-14T11:26:35.364Z,7.93
2023-04-14T11:28:08.363Z,6.50
2023-04-14T11:29:40.504Z,6.15
2023-04-14T11:31:14.986Z,6.05
2023-04-14T11:32:53.011Z,5.50
2023-04-14T11:34:28.767Z,5.05
2023-04-14T11:36:02.879Z,6.00
2023-04-14T11:37:36.693Z,5.40
2023-04-14T11:39:08.955Z,5.05
2023-04-14T11:40:41.558Z,5.60
2023-04-14T11:42:13.868Z,5.47
2023-04-14T11:43:47.352Z,5.90
2023-04-14T11:45:19.845Z,6.47
2023-04-14T11:46:52.026Z,6.77
2023-04-14T11:48:24.233Z,10.65
2023-04-14T11:49:56.419Z,6.70
2023-04-14T11:51:30.996Z,6.30
2023-04-14T11:53:08.830Z,7.53
2023-04-14T11:54:41.172Z,6.82
2023-04-14T11:56:13.517Z,6.07
2023-04-14T11:57:47.589Z,5.78
2023-04-14T11:59:19.817Z,5.10
2023-04-14T12:00:55.487Z,5.45
2023-04-14T12:02:28.386Z,4.97
2023-04-14T12:04:00.883Z,5.90
2023-04-14T12:05:34.385Z,5.18
2023-04-14T12:08:44.339Z,5.07
2023-04-14T12:10:16.697Z,5.78
2023-04-14T13:02:49.970Z,2.92
2023-04-14T13:04:22.361Z,3.50
2023-04-14T13:05:58.487Z,4.03
2023-04-14T13:07:31.317Z,3.78
2023-04-14T13:09:04.249Z,3.15
2023-04-14T13:10:36.753Z,2.65
2023-04-14T13:12:08.994Z,3.08
2023-04-14T13:13:41.460Z,3.35
2023-04-14T13:15:27.848Z,3.90
2023-04-14T13:17:06.638Z,2.60
2023-04-14T13:18:39.163Z,3.75
2023-04-14T13:20:11.855Z,3.25
2023-04-14T13:21:44.102Z,3.33
2023-04-14T13:23:16.380Z,2.63
2023-04-14T13:24:50.507Z,1.70
2023-04-14T13:26:23.027Z,1.80
2023-04-14T13:27:55.354Z,3.10
2023-04-14T13:29:27.533Z,1.40
2023-04-14T13:30:59.773Z,2.40
2023-04-14T13:32:34.285Z,2.40
2023-04-14T13:34:06.560Z,3.30
2023-04-14T13:35:39.089Z,2.75
2023-04-14T13:37:11.268Z,1.45
2023-04-14T13:38:43.490Z,2.20
2023-04-14T13:40:16.016Z,1.13
2023-04-14T13:41:48.214Z,1.63
2023-04-14T13:43:20.357Z,1.50
2023-04-14T13:44:53.013Z,1.60
2023-04-14T13:46:26.417Z,1.08
2023-04-14T13:49:31.898Z,1.67
2023-04-14T13:52:36.638Z,0.90
2023-04-14T13:54:11.797Z,0.90
2023-04-14T13:55:46.902Z,1.27
2023-04-14T13:57:19.291Z,0.98
2023-04-14T13:58:54.930Z,1.00
2023-04-14T14:00:27.693Z,1.02
2023-04-14T14:02:00.012Z,0.77
2023-04-14T14:03:32.570Z,1.47
2023-04-14T14:05:05.372Z,1.17
2023-04-14T14:06:37.854Z,1.00
2023-04-14T14:08:10.045Z,0.70
2023-04-14T14:09:42.414Z,1.10
2023-04-14T14:11:17.149Z,0.65
2023-04-14T14:12:49.396Z,1.02
2023-04-14T14:14:21.661Z,1.00
2023-04-14T14:15:54.510Z,1.00
2023-04-14T14:17:27.928Z,1.00
2023-04-14T14:20:32.700Z,0.90
2023-04-14T14:22:04.826Z,0.77
2023-04-14T14:23:36.983Z,1.00
2023-04-14T14:25:19.578Z,1.10
2023-04-14T14:26:52.819Z,1.05
2023-04-14T14:28:25.141Z,1.27
2023-04-14T14:29:57.371Z,0.95
2023-04-14T14:31:29.650Z,1.60
2023-04-14T14:33:01.819Z,1.42
2023-04-14T14:34:34.060Z,1.40
2023-04-14T14:36:07.245Z,1.38
2023-04-14T14:37:41.253Z,1.67
2023-04-14T14:39:13.915Z,1.73
2023-04-14T14:40:46.133Z,1.20
2023-04-14T14:42:18.393Z,2.85
2023-04-14T14:43:51.693Z,1.70
2023-04-14T14:45:30.391Z,1.38
2023-04-14T14:47:03.580Z,1.80
2023-04-14T14:48:36.662Z,1.92
2023-04-14T14:50:09.089Z,1.90
2023-04-14T14:51:41.302Z,1.75
2023-04-14T14:53:13.457Z,1.35
2023-04-14T14:54:45.639Z,1.20
2023-04-14T14:56:18.809Z,1.20
2023-04-14T14:57:51.747Z,1.38
2023-04-14T14:59:24.283Z,2.10
2023-04-14T15:00:56.388Z,1.75
2023-04-14T15:02:29.019Z,1.55
2023-04-14T15:04:01.763Z,1.58
2023-04-14T15:05:34.581Z,1.20
2023-04-14T15:07:08.034Z,1.50
2023-04-14T15:10:12.252Z,1.52
2023-04-14T15:11:44.440Z,0.98
2023-04-14T15:13:16.638Z,1.10
2023-04-14T15:14:49.060Z,1.08
2023-04-14T15:16:21.501Z,1.52
2023-04-14T15:17:53.740Z,1.20
2023-04-14T15:19:25.948Z,1.40
2023-04-14T15:20:58.058Z,1.10
2023-04-14T15:22:30.442Z,2.00
2023-04-14T15:24:02.683Z,1.67
2023-04-14T15:25:34.978Z,2.58
2023-04-14T15:27:07.160Z,2.78
2023-04-14T15:28:39.921Z,3.00
2023-04-14T15:30:12.556Z,2.30
2023-04-14T15:31:47.117Z,1.70
2023-04-14T15:33:19.332Z,2.38
2023-04-14T15:34:55.480Z,1.80
2023-04-14T15:36:27.916Z,1.63
2023-04-14T15:38:00.204Z,1.45
2023-04-14T15:39:32.780Z,1.92
2023-04-14T15:41:05.985Z,1.88
2023-04-14T15:42:38.485Z,1.90
2023-04-14T15:44:10.921Z,1.60
2023-04-14T15:45:43.206Z,1.50
2023-04-14T15:47:15.540Z,1.30
2023-04-14T15:48:47.669Z,1.80
2023-04-14T15:50:20.177Z,1.70
2023-04-14T15:51:53.201Z,2.20
2023-04-14T15:53:26.069Z,1.75
2023-04-14T15:54:58.167Z,2.20
2023-04-14T15:56:30.608Z,1.70
2023-04-14T15:58:02.986Z,3.60
2023-04-14T15:59:35.152Z,2.20
2023-04-14T16:01:08.277Z,9.52
2023-04-14T16:02:42.419Z,1.25
2023-04-14T16:04:14.806Z,1.20
2023-04-14T16:05:46.973Z,1.40
2023-04-14T16:07:19.057Z,11.32
2023-04-14T16:08:51.351Z,1.83
2023-04-14T16:10:23.792Z,1.20
2023-04-14T16:11:56.937Z,1.60
2023-04-14T16:13:29.198Z,1.85
2023-04-14T16:15:01.533Z,1.55
2023-04-14T16:16:34.174Z,2.25
2023-04-14T16:18:06.344Z,1.52
2023-04-14T16:19:38.637Z,1.60
2023-04-14T16:21:11.005Z,2.67
2023-04-14T16:22:43.234Z,3.00
2023-04-14T16:24:16.045Z,3.35
2023-04-14T16:25:51.517Z,1.60
2023-04-14T16:27:23.683Z,1.30
2023-04-14T16:28:55.919Z,1.35
2023-04-14T16:30:28.055Z,1.63
2023-04-14T16:32:02.124Z,1.33
2023-04-14T16:33:34.292Z,1.63
2023-04-14T16:35:07.098Z,1.58
2023-04-14T16:36:45.350Z,1.40
2023-04-14T16:38:17.586Z,1.38
2023-04-14T16:39:56.588Z,1.52
2023-04-14T16:41:29.302Z,1.65
2023-04-14T16:43:02.021Z,2.10
2023-04-14T16:44:37.389Z,2.03
2023-04-14T16:46:09.582Z,2.97
2023-04-14T16:47:42.063Z,4.40
2023-04-14T16:49:15.136Z,3.43
2023-04-14T16:50:49.976Z,3.72
2023-04-14T16:52:22.416Z,1.75
2023-04-14T16:53:54.699Z,1.70
2023-04-14T16:55:26.963Z,2.38
2023-04-14T16:56:59.022Z,5.60
2023-04-14T16:58:31.206Z,8.30
2023-04-14T17:00:04.941Z,29.20
2023-04-14T17:01:37.420Z,36.90
2023-04-14T17:03:09.769Z,26.27
2023-04-14T17:04:42.220Z,8.52
2023-04-14T17:06:14.482Z,9.93
2023-04-14T17:07:47.275Z,7.68
2023-04-14T17:09:19.515Z,5.63
2023-04-14T17:10:52.090Z,4.90
2023-04-14T17:12:24.353Z,3.70
2023-04-14T17:13:56.574Z,3.33
2023-04-14T17:15:28.972Z,4.32
2023-04-14T17:17:01.203Z,5.13
2023-04-14T17:18:34.033Z,4.50
2023-04-14T17:20:07.162Z,6.32
2023-04-14T17:21:39.442Z,6.63
2023-04-14T17:23:11.790Z,6.30
2023-04-14T17:24:44.824Z,8.32
2023-04-14T17:26:17.419Z,9.13
2023-04-14T17:27:49.660Z,9.02
2023-04-14T17:29:21.784Z,12.80
2023-04-14T17:30:53.923Z,11.85
2023-04-14T17:32:26.823Z,11.65
2023-04-14T17:33:59.321Z,15.45
2023-04-14T17:35:32.465Z,12.80
2023-04-14T17:38:52.037Z,8.90
2023-04-14T17:40:24.307Z,8.90
2023-04-14T17:41:58.368Z,7.47
2023-04-14T17:43:30.571Z,3.90
2023-04-14T17:45:02.992Z,3.22
2023-04-14T17:46:35.227Z,4.35
2023-04-14T17:48:08.658Z,4.68
2023-04-14T17:49:41.139Z,4.90
2023-04-14T17:51:13.243Z,3.10
2023-04-14T17:52:46.160Z,4.28
2023-04-14T17:54:18.329Z,3.65
2023-04-14T17:55:51.863Z,3.03
2023-04-14T17:57:24.979Z,2.90
2023-04-14T17:58:57.956Z,2.65
2023-04-14T18:00:30.124Z,2.58
2023-04-14T18:02:02.308Z,2.63
2023-04-14T18:03:34.830Z,2.40
2023-04-14T18:05:07.553Z,2.40
2023-04-14T18:06:39.697Z,2.25
2023-04-14T18:08:11.946Z,2.40
2023-04-14T18:09:44.268Z,2.40
2023-04-14T18:11:16.447Z,2.50
2023-04-14T18:12:49.680Z,2.25
2023-04-14T18:14:22.057Z,3.65
2023-04-14T18:15:54.226Z,2.95
2023-04-14T18:17:26.630Z,3.58
2023-04-14T18:18:59.317Z,2.95
2023-04-14T18:20:31.650Z,2.50
2023-04-14T18:22:03.861Z,2.83
2023-04-14T18:23:36.738Z,2.30
2023-04-14T18:25:10.048Z,2.13
2023-04-14T18:26:42.291Z,2.00
2023-04-14T18:28:14.679Z,1.77
2023-04-14T18:29:47.033Z,2.33
2023-04-14T18:31:19.435Z,2.35
2023-04-14T18:32:52.743Z,2.03
2023-04-14T18:36:00.960Z,2.58
2023-04-14T18:37:33.277Z,2.38
2023-04-14T18:39:05.470Z,2.50
2023-04-14T18:40:38.642Z,6.97
2023-04-14T18:42:11.075Z,7.40
2023-04-14T18:43:43.253Z,6.35
2023-04-14T18:45:15.521Z,6.90
2023-04-14T18:46:47.879Z,4.88
2023-04-14T18:48:20.528Z,6.60
2023-04-14T18:49:52.711Z,4.20
2023-04-14T18:51:24.926Z,2.67
2023-04-14T18:52:57.542Z,4.70
2023-04-14T18:54:30.013Z,3.10
2023-04-14T18:56:05.072Z,1.60
2023-04-14T18:57:37.749Z,1.70
2023-04-14T18:59:09.844Z,1.90
2023-04-14T19:00:45.457Z,1.77
2023-04-14T19:02:17.679Z,1.65
2023-04-14T19:03:52.014Z,2.00
2023-04-14T19:05:27.959Z,2.92
2023-04-14T19:07:00.044Z,5.70
2023-04-14T19:08:32.202Z,3.40
2023-04-14T19:10:05.267Z,4.40
2023-04-14T19:11:37.464Z,2.00
2023-04-14T19:13:11.648Z,2.00
2023-04-14T19:14:44.548Z,2.85
2023-04-14T19:16:16.986Z,5.50
2023-04-14T19:17:49.170Z,3.15
2023-04-14T19:19:21.353Z,3.60
2023-04-14T19:20:55.746Z,3.72
2023-04-14T19:22:28.770Z,5.57
2023-04-14T19:24:00.877Z,4.10
2023-04-14T19:25:33.198Z,4.60
2023-04-14T19:27:08.966Z,8.98
2023-04-14T19:28:42.801Z,10.52
2023-04-14T19:30:15.066Z,8.77
2023-04-14T19:31:47.515Z,5.18
2023-04-14T19:33:19.844Z,3.40
2023-04-14T19:34:51.971Z,3.33
2023-04-14T19:36:24.413Z,2.30
2023-04-14T19:37:58.386Z,3.33
2023-04-14T19:39:31.213Z,5.45
2023-04-14T19:41:04.140Z,9.93
2023-04-14T19:42:36.257Z,7.47
2023-04-14T19:44:08.932Z,6.53
2023-04-14T19:45:52.371Z,4.63
2023-04-14T19:47:24.856Z,4.10
2023-04-14T19:48:57.189Z,3.30
2023-04-14T19:50:29.416Z,2.53
2023-04-14T19:52:02.022Z,2.97
2023-04-14T19:53:34.912Z,4.50
2023-04-14T19:55:07.675Z,5.20
2023-04-14T19:56:41.211Z,7.85
2023-04-14T19:59:45.336Z,6.70
2023-04-14T20:01:17.524Z,7.75
2023-04-14T20:02:50.050Z,4.30
2023-04-14T20:04:22.785Z,6.28
2023-04-14T20:05:57.108Z,6.00
2023-04-14T20:07:29.277Z,7.20
2023-04-14T20:09:02.350Z,13.35
2023-04-14T20:10:34.804Z,10.57
2023-04-14T20:12:06.928Z,10.88
2023-04-14T20:13:41.857Z,5.25
2023-04-14T20:16:50.826Z,5.90
2023-04-14T20:18:23.712Z,4.53
2023-04-14T20:19:56.055Z,4.47
2023-04-14T20:21:28.562Z,3.85
2023-04-14T20:23:01.937Z,4.20
2023-04-14T20:26:06.470Z,4.57
2023-04-14T20:27:39.313Z,4.93
2023-04-14T20:29:12.558Z,4.25
2023-04-14T20:30:45.417Z,3.47
2023-04-14T20:32:18.381Z,3.67
2023-04-14T20:33:51.477Z,3.95
2023-04-14T20:35:23.819Z,4.00
2023-04-14T20:36:56.161Z,4.25
2023-04-14T20:38:29.654Z,5.68
2023-04-14T20:40:01.948Z,6.38
2023-04-14T20:41:35.082Z,8.68
2023-04-14T20:43:07.906Z,6.45
2023-04-14T20:44:40.847Z,5.13
2023-04-14T20:46:13.104Z,6.45
2023-04-14T20:47:45.470Z,4.78
2023-04-14T20:49:17.971Z,3.22
2023-04-14T20:50:50.514Z,3.53
2023-04-14T20:52:23.191Z,6.03
2023-04-14T20:53:56.186Z,5.88
2023-04-14T20:55:28.267Z,5.20
2023-04-14T20:57:00.693Z,5.15
2023-04-14T20:58:32.838Z,5.10
2023-04-14T21:00:05.662Z,5.22
2023-04-14T21:01:38.048Z,4.80
2023-04-14T21:03:10.365Z,4.55
2023-04-14T21:04:42.757Z,4.60
2023-04-14T21:06:14.988Z,5.03
2023-04-14T21:07:47.483Z,4.93
2023-04-14T21:09:21.684Z,5.45
2023-04-14T21:11:15.371Z,5.28
2023-04-14T21:15:24.909Z,5.00
2023-04-14T21:15:44.056Z,4.32
2023-04-14T21:16:33.241Z,3.97
2023-04-14T21:18:08.096Z,3.75
2023-04-14T21:19:40.214Z,3.53
2023-04-14T21:21:12.808Z,3.30
2023-04-14T21:22:44.977Z,3.47
2023-04-14T21:24:23.222Z,3.60
2023-04-14T21:26:00.162Z,4.03
2023-04-14T21:27:34.925Z,4.97
2023-04-14T21:29:07.011Z,5.00
2023-04-14T21:30:39.237Z,4.28
2023-04-14T21:32:11.623Z,3.13
2023-04-14T21:33:43.796Z,2.78
2023-04-14T21:35:15.905Z,3.10
2023-04-14T21:36:48.728Z,3.05
2023-04-14T21:38:20.900Z,2.65
2023-04-14T21:39:53.305Z,2.40
2023-04-14T21:41:25.573Z,2.10
2023-04-14T21:42:57.851Z,2.22
2023-04-14T21:44:30.101Z,2.08
2023-04-14T21:46:02.359Z,2.40
2023-04-14T21:47:34.546Z,2.30
2023-04-14T21:49:07.241Z,2.22
2023-04-14T21:50:40.372Z,1.90
2023-04-14T21:52:12.548Z,1.92
2023-04-14T21:53:44.654Z,2.00
2023-04-14T21:55:17.082Z,1.70
2023-04-14T21:56:50.537Z,1.90
2023-04-14T21:58:22.720Z,2.10
2023-04-14T21:59:54.867Z,1.90
2023-04-14T22:01:27.061Z,1.80
2023-04-14T22:02:59.418Z,1.80
2023-04-14T22:04:36.584Z,2.30
2023-04-14T22:06:12.340Z,2.08
2023-04-14T22:07:46.006Z,1.92
2023-04-14T22:09:19.189Z,2.28